This is the latest recevied weather packets stored in our database for station/object KD5FHA. If no packets are shown the sender has not sent any weather packets the latest 10 day(s).
| Time | Temp. | Humidity | Pressure | Rain* | Wind** | Luminosity | Snow |
|---|---|---|---|---|---|---|---|
| 1777844418 | 26.67° C | 33% | 1017.8 hPa | 0 mm | - | 693 W/m² | - |
| 1777844116 | 27.78° C | 34% | 1017.9 hPa | 0 mm | - | 679 W/m² | - |
| 1777843813 | 27.78° C | 35% | 1017.8 hPa | 0 mm | - | 694 W/m² | - |
| 1777843510 | 27.78° C | 33% | 1017.8 hPa | 0 mm | - | 734 W/m² | - |
| 1777843208 | 27.22° C | 35% | 1017.9 hPa | 0 mm | - | 724 W/m² | - |
| 1777842905 | 27.78° C | 34% | 1018 hPa | 0 mm | - | 728 W/m² | - |
| 1777842600 | 27.22° C | 35% | 1018.1 hPa | 0 mm | - | 743 W/m² | - |
| 1777842297 | 27.22° C | 34% | 1018.3 hPa | 0 mm | - | 763 W/m² | - |
| 1777841991 | 28.33° C | 36% | 1018.3 hPa | 0 mm | - | 768 W/m² | - |
| 1777841689 | 27.78° C | 36% | 1018.4 hPa | 0 mm | - | 738 W/m² | - |
| 1777841384 | 27.22° C | 36% | 1018.3 hPa | 0 mm | - | 820 W/m² | - |
| 1777841082 | 27.78° C | 35% | 1018.5 hPa | 0 mm | - | 794 W/m² | - |
| 1777840779 | 27.22° C | 35% | 1018.7 hPa | 0 mm | - | 818 W/m² | - |
| 1777840477 | 27.78° C | 34% | 1018.8 hPa | 0 mm | - | 823 W/m² | - |
| 1777840173 | 27.22° C | 35% | 1018.9 hPa | 0 mm | - | 833 W/m² | - |
| 1777839871 | 26.67° C | 36% | 1018.9 hPa | 0 mm | - | 837 W/m² | - |
| 1777839570 | 27.22° C | 35% | 1019.1 hPa | 0 mm | - | 847 W/m² | - |
| 1777839266 | 27.22° C | 32% | 1019.2 hPa | 0 mm | - | 855 W/m² | - |
| 1777838964 | 26.67° C | 35% | 1019.2 hPa | 0 mm | - | 866 W/m² | - |
| 1777838660 | 27.22° C | 34% | 1019.3 hPa | 0 mm | - | 873 W/m² | - |
| 1777838357 | 26.67° C | 34% | 1019.3 hPa | 0 mm | - | 881 W/m² | - |
| 1777838054 | 26.67° C | 34% | 1019.4 hPa | 0 mm | - | 890 W/m² | - |
| 1777837751 | 26.67° C | 34% | 1019.5 hPa | 0 mm | - | 888 W/m² | - |
| 1777837448 | 27.22° C | 34% | 1019.4 hPa | 0 mm | - | 919 W/m² | - |
| 1777837143 | 26.67° C | 39% | 1019.6 hPa | 0 mm | - | 910 W/m² | - |
* Rain latest hour (hover to see other rain measurements)
** Current wind speed in m/s (hover to see current wind gust speed)